Time;durP1;ratioP1;P1;durP2;ratioP2;P2;SDS_P1;SDS_P2;PMS_P1;PMS_P2;Temp;Humidity;BMP_temperature;BMP_pressure;BME280_temperature;BME280_humidity;BME280_pressure;Samples;Min_cycle;Max_cycle;Signal;HPM_P1;HPM_P2
2021/04/09 00:00:58;;;;;;;12.95;6.18;;;;;;;;;;4981822;28;20030;-79
2021/04/09 00:03:24;;;;;;;13.35;5.97;;;;;;;;;;4979588;28;20044;-77
2021/04/09 00:05:50;;;;;;;10.88;5.68;;;;;;;;;;4985158;28;20116;-76
2021/04/09 00:08:16;;;;;;;14.07;7.40;;;;;;;;;;4986590;28;20030;-79
2021/04/09 00:10:42;;;;;;;12.40;6.20;;;3.90;83.10;;;;;;4984293;28;20034;-78
2021/04/09 00:13:08;;;;;;;13.50;6.28;;;3.90;83.50;;;;;;4989272;28;20511;-77
2021/04/09 00:15:34;;;;;;;10.93;6.05;;;3.90;84.00;;;;;;4987857;28;20026;-77
2021/04/09 00:18:00;;;;;;;11.93;5.75;;;;;;;;;;4982232;28;20026;-76
2021/04/09 00:20:26;;;;;;;10.60;6.05;;;;;;;;;;4979921;28;20050;-76
2021/04/09 00:22:55;;;;;;;8.20;5.07;;;3.80;85.00;;;;;;4984630;28;20483;-76
2021/04/09 00:25:22;;;;;;;20.55;7.47;;;3.80;85.20;;;;;;4985708;28;20038;-77
2021/04/09 00:27:48;;;;;;;7.60;4.63;;;3.80;85.20;;;;;;4987633;28;20585;-77
2021/04/09 00:30:24;;;;;;;9.57;5.10;;;3.80;86.10;;;;;;4990308;28;20018;-77
2021/04/09 00:32:50;;;;;;;10.60;6.00;;;3.70;86.10;;;;;;4979220;28;20670;-76
2021/04/09 00:35:16;;;;;;;14.20;6.00;;;;;;;;;;4977753;28;20039;-76
2021/04/09 00:37:43;;;;;;;13.07;6.38;;;;;;;;;;4980733;28;20042;-76
2021/04/09 00:40:10;;;;;;;10.82;5.53;;;3.60;87.10;;;;;;4980888;28;20112;-77
2021/04/09 00:42:36;;;;;;;9.85;5.50;;;;;;;;;;4988692;28;20033;-76
2021/04/09 00:45:02;;;;;;;10.07;5.32;;;;;;;;;;4983783;28;20405;-77
2021/04/09 00:47:28;;;;;;;12.82;5.70;;;;;;;;;;4977951;28;20022;-75
2021/04/09 00:49:57;;;;;;;11.27;5.20;;;;;;;;;;4996935;28;20038;-76
2021/04/09 00:52:28;;;;;;;12.20;5.85;;;3.60;87.20;;;;;;4997227;28;20061;-76
2021/04/09 00:54:54;;;;;;;9.75;5.80;;;3.50;88.50;;;;;;5004108;28;20034;-77
2021/04/09 00:57:20;;;;;;;12.00;6.50;;;3.50;88.90;;;;;;4987436;28;20221;-76
2021/04/09 00:59:46;;;;;;;11.98;6.70;;;3.50;89.20;;;;;;4981508;28;20038;-77
2021/04/09 01:02:12;;;;;;;10.18;5.85;;;3.40;89.50;;;;;;4983624;28;20027;-77
2021/04/09 01:04:38;;;;;;;12.68;6.20;;;;;;;;;;4976177;28;20430;-77
2021/04/09 01:07:04;;;;;;;13.60;6.47;;;3.40;90.10;;;;;;4977799;28;21086;-79
2021/04/09 01:09:34;;;;;;;14.07;6.40;;;3.40;89.40;;;;;;4976973;28;20066;-78
2021/04/09 01:12:00;;;;;;;11.05;5.68;;;;;;;;;;4997195;28;20026;-76
2021/04/09 01:14:26;;;;;;;10.65;5.90;;;;;;;;;;4985879;28;20038;-76
2021/04/09 01:16:59;;;;;;;15.27;7.28;;;;;;;;;;4985202;28;21845;-77
2021/04/09 01:20:02;;;;;;;11.27;6.03;;;3.40;90.00;;;;;;4995939;28;20068;-76
2021/04/09 01:22:37;;;;;;;12.50;6.50;;;3.30;90.10;;;;;;4998745;28;20499;-76
2021/04/09 01:25:37;;;;;;;12.40;7.32;;;3.40;94.00;;;;;;4980705;28;20420;-76
2021/04/09 01:28:25;;;;;;;15.35;7.65;;;3.20;90.40;;;;;;5000564;28;20049;-74
2021/04/09 01:31:02;;;;;;;17.40;6.85;;;3.20;90.50;;;;;;4981399;28;20037;-79
2021/04/09 01:33:43;;;;;;;13.57;7.80;;;3.20;90.80;;;;;;4978756;28;20062;-78
2021/04/09 01:36:31;;;;;;;10.70;6.60;;;3.10;91.10;;;;;;4980377;28;20057;-78
2021/04/09 01:39:27;;;;;;;15.55;7.65;;;3.10;91.20;;;;;;4989591;28;20037;-76
2021/04/09 01:41:54;;;;;;;13.48;6.63;;;;;;;;;;4965422;28;20058;-76
2021/04/09 01:44:24;;;;;;;11.52;7.25;;;3.00;91.20;;;;;;4983261;28;20441;-78
2021/04/09 01:46:52;;;;;;;15.25;7.22;;;3.00;91.20;;;;;;4986808;28;20031;-77
2021/04/09 01:49:19;;;;;;;12.70;6.85;;;3.00;91.60;;;;;;4981261;28;20041;-75
2021/04/09 01:51:47;;;;;;;15.25;6.95;;;3.00;91.90;;;;;;4982038;28;20430;-78
2021/04/09 01:54:14;;;;;;;15.13;7.30;;;3.00;91.80;;;;;;4978364;28;20039;-76
2021/04/09 01:56:42;;;;;;;14.23;6.97;;;2.90;91.70;;;;;;4983778;28;20058;-77
2021/04/09 01:59:08;;;;;;;12.82;6.68;;;2.90;91.90;;;;;;4981271;28;20030;-78
2021/04/09 02:01:38;;;;;;;11.50;6.50;;;2.90;92.00;;;;;;4985924;28;20065;-75
2021/04/09 02:04:04;;;;;;;12.45;7.32;;;2.90;92.00;;;;;;4982353;28;20042;-74
2021/04/09 02:06:32;;;;;;;12.85;6.45;;;2.90;92.00;;;;;;4980880;28;20920;-78
2021/04/09 02:09:00;;;;;;;11.15;5.90;;;2.90;92.10;;;;;;4978326;28;20026;-76
2021/04/09 02:11:27;;;;;;;10.80;5.97;;;2.90;92.40;;;;;;4982104;28;20023;-77
2021/04/09 02:13:56;;;;;;;10.63;5.30;;;2.80;92.70;;;;;;4979141;28;20039;-76
2021/04/09 02:16:23;;;;;;;12.57;6.10;;;2.80;92.70;;;;;;4981642;28;21980;-76
2021/04/09 02:18:50;;;;;;;8.65;5.50;;;2.80;92.70;;;;;;4981553;28;20038;-76
2021/04/09 02:21:15;;;;;;;12.60;5.55;;;2.80;92.50;;;;;;4968297;28;20036;-75
2021/04/09 02:23:41;;;;;;;11.52;5.80;;;;;;;;;;4984032;28;20670;-75
2021/04/09 02:26:07;;;;;;;10.25;4.72;;;;;;;;;;4981487;28;20030;-77
2021/04/09 02:28:34;;;;;;;11.05;4.85;;;2.80;92.10;;;;;;4979993;28;20027;-76
2021/04/09 02:31:03;;;;;;;14.80;5.72;;;2.70;92.30;;;;;;4984392;28;20432;-76
2021/04/09 02:33:34;;;;;;;11.13;5.85;;;2.70;92.30;;;;;;4991820;28;20095;-78
2021/04/09 02:36:10;;;;;;;11.77;5.35;;;2.70;92.40;;;;;;4986427;28;20397;-77
2021/04/09 02:38:37;;;;;;;12.05;6.07;;;2.70;92.40;;;;;;4987373;28;20052;-76
2021/04/09 02:41:03;;;;;;;11.20;5.55;;;2.70;92.70;;;;;;4985635;28;20030;-77
2021/04/09 02:43:30;;;;;;;16.73;7.28;;;2.70;92.60;;;;;;4986918;28;20126;-77
2021/04/09 02:45:57;;;;;;;13.10;6.05;;;2.70;92.90;;;;;;4984158;28;20018;-76
2021/04/09 02:48:27;;;;;;;10.80;5.82;;;2.60;93.00;;;;;;4985501;28;20031;-76
2021/04/09 02:50:54;;;;;;;11.15;5.90;;;2.60;92.90;;;;;;4985041;28;20038;-77
2021/04/09 02:53:26;;;;;;;14.35;6.53;;;2.60;92.90;;;;;;4984199;28;20515;-77
2021/04/09 02:55:53;;;;;;;9.95;6.15;;;2.60;93.10;;;;;;4984320;28;20034;-77
2021/04/09 02:58:20;;;;;;;12.38;6.78;;;2.60;93.30;;;;;;4988901;28;20118;-75
2021/04/09 03:00:47;;;;;;;12.73;6.40;;;2.60;93.10;;;;;;4980390;28;20129;-76
2021/04/09 03:03:17;;;;;;;10.75;6.40;;;2.60;92.60;;;;;;5000255;28;20039;-77
2021/04/09 03:05:44;;;;;;;9.68;5.70;;;2.70;93.10;;;;;;4987939;28;20030;-76
2021/04/09 03:08:12;;;;;;;14.40;6.15;;;2.50;93.00;;;;;;4989128;28;20405;-77
2021/04/09 03:10:38;;;;;;;12.88;7.00;;;;;;;;;;4985647;28;20032;-76
2021/04/09 03:13:04;;;;;;;16.42;6.78;;;2.50;93.20;;;;;;4993678;28;20026;-76
2021/04/09 03:15:37;;;;;;;10.48;6.25;;;2.50;93.50;;;;;;4990114;28;20314;-77
2021/04/09 03:18:09;;;;;;;11.80;6.32;;;2.50;93.60;;;;;;4992119;28;20929;-78
2021/04/09 03:20:35;;;;;;;15.02;6.53;;;2.40;93.80;;;;;;4990791;28;20801;-76
2021/04/09 03:23:01;;;;;;;11.43;5.93;;;2.30;93.80;;;;;;4986569;28;20038;-76
2021/04/09 03:25:27;;;;;;;10.13;6.22;;;2.30;94.20;;;;;;4987829;28;20030;-76
2021/04/09 03:27:53;;;;;;;13.45;6.65;;;2.30;94.40;;;;;;4984978;28;20110;-76
2021/04/09 03:30:20;;;;;;;11.63;7.70;;;2.40;94.70;;;;;;4986828;28;20128;-76
2021/04/09 03:32:49;;;;;;;13.15;6.70;;;2.40;94.80;;;;;;4987745;28;20096;-76
2021/04/09 03:35:16;;;;;;;15.20;7.63;;;2.40;94.80;;;;;;4983340;28;20481;-77
2021/04/09 03:37:42;;;;;;;13.90;7.18;;;2.30;95.00;;;;;;4988079;28;20034;-74
2021/04/09 03:40:09;;;;;;;11.52;7.18;;;2.30;94.70;;;;;;4984368;28;20026;-76
2021/04/09 03:42:34;;;;;;;14.20;7.78;;;2.20;95.10;;;;;;4983400;28;20441;-75
2021/04/09 03:45:00;;;;;;;14.25;7.25;;;2.20;95.00;;;;;;4984369;28;20027;-76
2021/04/09 03:47:26;;;;;;;15.23;7.75;;;2.20;95.20;;;;;;4984628;28;20502;-76
2021/04/09 03:49:51;;;;;;;15.00;7.03;;;2.20;95.10;;;;;;4978292;28;20038;-77
2021/04/09 03:52:17;;;;;;;14.23;7.38;;;2.20;95.40;;;;;;4983487;28;20157;-78
2021/04/09 03:54:42;;;;;;;15.10;7.70;;;2.30;95.40;;;;;;4988276;28;20041;-75
2021/04/09 03:57:08;;;;;;;14.07;7.43;;;2.30;95.30;;;;;;4987913;28;20038;-77
2021/04/09 03:59:34;;;;;;;10.57;6.57;;;2.30;95.50;;;;;;4983436;28;20227;-77
2021/04/09 04:02:00;;;;;;;13.32;6.90;;;2.30;95.30;;;;;;4984997;28;20037;-75
2021/04/09 04:04:26;;;;;;;13.50;6.78;;;2.30;95.30;;;;;;4987103;28;20672;-77
2021/04/09 04:06:51;;;;;;;13.55;6.93;;;2.30;95.30;;;;;;4988014;28;20026;-76
2021/04/09 04:09:17;;;;;;;15.82;6.97;;;2.30;95.30;;;;;;4985104;28;20026;-75
2021/04/09 04:11:43;;;;;;;15.70;7.07;;;2.30;95.40;;;;;;4984717;28;20038;-77
2021/04/09 04:14:09;;;;;;;13.77;7.15;;;2.40;95.30;;;;;;4979223;28;20042;-77
2021/04/09 04:16:34;;;;;;;13.32;7.28;;;2.40;95.20;;;;;;4988278;28;20472;-75
2021/04/09 04:19:02;;;;;;;13.68;7.07;;;2.40;95.10;;;;;;4987172;28;20081;-77
2021/04/09 04:21:31;;;;;;;14.43;6.93;;;2.40;95.10;;;;;;4991735;28;20030;-76
2021/04/09 04:23:56;;;;;;;11.25;6.72;;;2.30;95.10;;;;;;4971478;28;20194;-77
2021/04/09 04:26:22;;;;;;;15.85;7.47;;;2.30;95.40;;;;;;4998990;28;20042;-76
2021/04/09 04:28:47;;;;;;;16.15;7.47;;;2.40;95.50;;;;;;4986989;28;20035;-75
2021/04/09 04:31:14;;;;;;;14.55;7.45;;;2.40;95.40;;;;;;4982978;28;20061;-77
2021/04/09 04:33:39;;;;;;;16.90;7.70;;;2.40;94.90;;;;;;4986892;28;20038;-77
2021/04/09 04:36:05;;;;;;;12.25;7.10;;;2.50;95.00;;;;;;4988245;28;20057;-78
2021/04/09 04:38:31;;;;;;;16.00;7.65;;;2.50;95.00;;;;;;4982250;28;20037;-77
2021/04/09 04:40:58;;;;;;;15.32;6.80;;;2.50;94.90;;;;;;4987872;28;20038;-77
2021/04/09 04:43:23;;;;;;;11.98;6.97;;;2.60;94.70;;;;;;4989317;28;20580;-78
2021/04/09 04:45:49;;;;;;;16.73;7.65;;;2.50;94.90;;;;;;4988992;28;20038;-77
2021/04/09 04:48:15;;;;;;;11.30;6.72;;;2.50;94.50;;;;;;4982218;28;20867;-77
2021/04/09 04:50:41;;;;;;;13.23;6.80;;;2.50;94.80;;;;;;4980527;28;20030;-77
2021/04/09 04:53:07;;;;;;;15.93;6.50;;;2.40;95.00;;;;;;4982631;28;20050;-77
2021/04/09 04:55:32;;;;;;;11.15;6.78;;;2.40;94.90;;;;;;4979174;28;20027;-78
2021/04/09 04:57:58;;;;;;;14.75;7.10;;;2.40;94.80;;;;;;4981248;28;20041;-77
2021/04/09 05:00:25;;;;;;;14.00;7.30;;;2.60;94.90;;;;;;4998640;28;20031;-78
2021/04/09 05:02:50;;;;;;;11.43;6.93;;;2.40;94.90;;;;;;4990800;28;20038;-75
2021/04/09 05:05:16;;;;;;;18.15;7.32;;;2.30;95.00;;;;;;4989273;28;20093;-75
2021/04/09 05:07:42;;;;;;;14.25;7.28;;;2.40;94.90;;;;;;4999713;28;20094;-76
2021/04/09 05:10:08;;;;;;;13.88;6.70;;;2.40;94.70;;;;;;4986199;28;20052;-76
2021/04/09 05:12:34;;;;;;;16.77;8.13;;;2.40;95.00;;;;;;4980288;28;20080;-77
2021/04/09 05:15:00;;;;;;;13.25;7.40;;;2.40;95.10;;;;;;4983382;28;20038;-77
2021/04/09 05:17:26;;;;;;;14.25;7.45;;;2.40;95.20;;;;;;4986103;28;20211;-78
2021/04/09 05:19:52;;;;;;;15.00;7.68;;;2.40;95.10;;;;;;4987975;28;20298;-76
2021/04/09 05:22:18;;;;;;;12.02;7.50;;;2.50;95.00;;;;;;4982253;28;20030;-77
2021/04/09 05:24:46;;;;;;;17.42;6.85;;;2.50;95.00;;;;;;4985640;28;20045;-78
2021/04/09 05:27:14;;;;;;;13.15;7.78;;;2.50;94.80;;;;;;4984812;28;20030;-76
2021/04/09 05:29:40;;;;;;;17.73;8.68;;;2.50;94.60;;;;;;4985795;28;20093;-76
2021/04/09 05:32:10;;;;;;;13.75;8.20;;;2.50;94.90;;;;;;4988860;28;20026;-77
2021/04/09 05:34:36;;;;;;;14.50;8.25;;;2.60;94.80;;;;;;4980581;28;20034;-76
2021/04/09 05:37:03;;;;;;;21.75;8.63;;;2.60;94.60;;;;;;4983620;28;20027;-77
2021/04/09 05:39:32;;;;;;;14.98;8.20;;;2.60;94.70;;;;;;4983489;28;20078;-77
2021/04/09 05:41:57;;;;;;;13.25;7.95;;;2.60;94.70;;;;;;4982040;28;20038;-76
2021/04/09 05:44:23;;;;;;;23.30;8.88;;;2.70;94.50;;;;;;4985495;28;20150;-78
2021/04/09 05:46:49;;;;;;;13.13;8.27;;;2.70;94.30;;;;;;4985307;28;20031;-76
2021/04/09 05:49:14;;;;;;;17.30;8.52;;;2.80;94.30;;;;;;4982653;28;20026;-76
2021/04/09 05:51:40;;;;;;;18.88;8.45;;;2.80;94.10;;;;;;4986912;28;20030;-77
2021/04/09 05:54:06;;;;;;;15.88;8.63;;;2.80;94.20;;;;;;4986340;28;20032;-76
2021/04/09 05:56:32;;;;;;;16.00;8.48;;;2.90;93.80;;;;;;4985409;28;20042;-76
2021/04/09 05:58:58;;;;;;;17.65;9.68;;;2.90;94.10;;;;;;4984326;28;20441;-76
2021/04/09 06:01:23;;;;;;;16.85;9.05;;;3.00;93.90;;;;;;4977356;28;20043;-78
2021/04/09 06:03:50;;;;;;;17.95;9.43;;;3.00;93.80;;;;;;4986188;28;20030;-76
2021/04/09 06:06:16;;;;;;;18.45;9.20;;;3.10;93.40;;;;;;4990026;28;20038;-75
2021/04/09 06:08:42;;;;;;;25.13;9.88;;;3.10;93.60;;;;;;4986633;28;20076;-77
2021/04/09 06:11:11;;;;;;;25.60;9.18;;;3.30;93.40;;;;;;4983101;28;20030;-76
2021/04/09 06:13:38;;;;;;;16.98;8.40;;;3.30;93.60;;;;;;4987202;28;20053;-76
2021/04/09 06:16:05;;;;;;;24.50;9.55;;;3.40;93.10;;;;;;4989282;28;20045;-75
2021/04/09 06:18:31;;;;;;;18.00;9.90;;;3.50;92.70;;;;;;4985839;28;20049;-76
2021/04/09 06:20:56;;;;;;;20.52;9.95;;;3.50;92.70;;;;;;4991216;28;20026;-77
2021/04/09 06:23:25;;;;;;;19.77;9.40;;;3.50;92.50;;;;;;4980260;28;20038;-76
2021/04/09 06:25:50;;;;;;;22.58;9.45;;;4.80;93.00;;;;;;4987290;28;20038;-77
2021/04/09 06:28:16;;;;;;;26.92;10.02;;;3.60;92.60;;;;;;4986539;28;20029;-75
2021/04/09 06:30:42;;;;;;;19.13;10.00;;;3.60;92.70;;;;;;4987374;28;20037;-76
2021/04/09 06:33:08;;;;;;;19.92;10.25;;;3.70;92.60;;;;;;4991797;28;20452;-75
2021/04/09 06:35:33;;;;;;;17.10;8.77;;;3.80;92.80;;;;;;4988198;28;20097;-76
2021/04/09 06:37:59;;;;;;;18.13;9.27;;;3.80;91.60;;;;;;4987360;28;20030;-76
2021/04/09 06:40:27;;;;;;;16.85;8.90;;;3.80;91.80;;;;;;4984317;28;20448;-76
2021/04/09 06:42:54;;;;;;;22.73;10.98;;;3.90;91.50;;;;;;4987600;28;20031;-76
2021/04/09 06:45:20;;;;;;;16.67;9.35;;;4.00;91.60;;;;;;4990655;28;20030;-77
2021/04/09 06:47:47;;;;;;;16.95;9.10;;;;;;;;;;4988589;28;20089;-77
2021/04/09 06:50:12;;;;;;;17.58;8.95;;;4.30;90.70;;;;;;4990052;28;20030;-78
2021/04/09 06:52:38;;;;;;;16.67;8.60;;;4.50;90.60;;;;;;4985652;28;20030;-76
2021/04/09 06:55:05;;;;;;;14.57;8.00;;;4.70;90.40;;;;;;4981943;28;20483;-78
2021/04/09 06:57:34;;;;;;;27.25;9.10;;;4.80;90.40;;;;;;4979932;28;20026;-75
2021/04/09 07:00:09;;;;;;;20.20;8.48;;;4.90;90.40;;;;;;4983619;28;20516;-76
2021/04/09 07:02:35;;;;;;;20.02;7.30;;;5.00;88.40;;;;;;4988543;28;20035;-75
2021/04/09 07:05:01;;;;;;;14.05;7.82;;;5.10;87.20;;;;;;4983969;28;20054;-80
2021/04/09 07:07:27;;;;;;;16.52;8.10;;;5.30;86.50;;;;;;4985390;28;20486;-76
2021/04/09 07:09:53;;;;;;;15.43;7.47;;;5.40;85.70;;;;;;4986324;28;20469;-78
2021/04/09 07:12:24;;;;;;;22.60;8.15;;;5.50;85.80;;;;;;4984997;28;20082;-76
2021/04/09 07:14:51;;;;;;;;;;;5.60;84.10;;;;;;4981489;28;20046;-78
2021/04/09 07:17:31;;;;;;;13.50;7.15;;;5.70;84.20;;;;;;4997481;28;19913;-76
2021/04/09 07:20:15;;;;;;;15.45;7.25;;;5.80;82.70;;;;;;4987806;28;20061;-79
2021/04/09 07:22:43;;;;;;;11.65;6.32;;;5.80;82.90;;;;;;4986723;28;20045;-77
2021/04/09 07:25:10;;;;;;;16.48;7.00;;;6.00;82.50;;;;;;4979941;28;20111;-78
2021/04/09 07:27:37;;;;;;;15.05;7.72;;;6.20;81.60;;;;;;4974728;28;20513;-77
2021/04/09 07:30:07;;;;;;;18.75;6.93;;;6.50;80.70;;;;;;4966674;28;20031;-75
2021/04/09 07:32:34;;;;;;;18.20;8.15;;;6.60;79.90;;;;;;4984295;28;20034;-78
2021/04/09 07:35:03;;;;;;;18.25;7.18;;;6.60;80.30;;;;;;4981645;28;20517;-78
2021/04/09 07:37:30;;;;;;;19.55;6.72;;;6.80;79.80;;;;;;4988958;28;20054;-76
2021/04/09 07:40:02;;;;;;;16.83;7.03;;;7.10;79.90;;;;;;4985051;28;20029;-77
2021/04/09 07:42:29;;;;;;;16.02;5.90;;;7.10;80.40;;;;;;4983915;28;20057;-78
2021/04/09 07:45:01;;;;;;;8.80;4.80;;;7.40;80.10;;;;;;4985299;28;20077;-78
2021/04/09 07:47:27;;;;;;;11.55;4.97;;;7.60;80.50;;;;;;4985418;28;20023;-76
2021/04/09 07:50:10;;;;;;;8.95;4.70;;;8.20;80.10;;;;;;4984997;28;20033;-76
2021/04/09 07:52:44;;;;;;;8.25;4.20;;;8.20;78.90;;;;;;4987678;28;20438;-79
2021/04/09 07:55:24;;;;;;;8.95;4.82;;;8.30;79.30;;;;;;4989403;28;20018;-80
2021/04/09 07:57:50;;;;;;;7.03;4.15;;;8.60;78.00;;;;;;4985449;28;20092;-77
2021/04/09 08:00:26;;;;;;;7.75;3.65;;;8.80;77.50;;;;;;4985919;28;20029;-78
2021/04/09 08:02:54;;;;;;;10.85;4.70;;;8.90;76.60;;;;;;4987906;28;20366;-77
2021/04/09 08:05:25;;;;;;;10.30;5.00;;;8.90;76.60;;;;;;4986063;28;20069;-76
2021/04/09 08:07:52;;;;;;;9.85;4.28;;;8.90;76.30;;;;;;4986462;28;20033;-78
2021/04/09 08:10:30;;;;;;;13.68;4.63;;;9.00;75.80;;;;;;4991277;28;20019;-75
2021/04/09 08:12:57;;;;;;;9.93;4.70;;;9.00;75.80;;;;;;4983271;28;20026;-76
2021/04/09 08:15:25;;;;;;;8.32;4.55;;;8.90;76.50;;;;;;4982814;28;20031;-78
2021/04/09 08:17:57;;;;;;;9.63;4.53;;;9.00;76.50;;;;;;4984602;28;20065;-77
2021/04/09 08:20:24;;;;;;;11.35;4.50;;;8.90;76.50;;;;;;4984587;28;20893;-77
2021/04/09 08:22:50;;;;;;;9.93;4.50;;;9.00;76.90;;;;;;4991213;28;20034;-76
2021/04/09 08:25:16;;;;;;;12.05;4.80;;;9.00;76.70;;;;;;4988932;28;20033;-77
2021/04/09 08:27:44;;;;;;;8.45;4.35;;;9.20;76.30;;;;;;4987273;28;20034;-79
2021/04/09 08:30:11;;;;;;;9.57;4.88;;;9.30;75.90;;;;;;4988311;28;20026;-77
2021/04/09 08:32:37;;;;;;;13.68;4.55;;;9.30;76.10;;;;;;4984737;28;20026;-79
2021/04/09 08:35:07;;;;;;;8.82;4.20;;;9.30;75.90;;;;;;4983591;28;20061;-77
2021/04/09 08:37:34;;;;;;;10.50;5.20;;;9.30;76.20;;;;;;4986816;28;20097;-79
2021/04/09 08:40:03;;;;;;;10.25;5.05;;;9.30;76.20;;;;;;4985291;28;20382;-78
2021/04/09 08:42:31;;;;;;;9.20;4.97;;;9.50;76.20;;;;;;4993443;28;20034;-77
2021/04/09 08:45:01;;;;;;;10.27;5.15;;;9.80;75.70;;;;;;4985578;28;20453;-76
2021/04/09 08:47:28;;;;;;;7.82;4.50;;;10.20;74.20;;;;;;4987916;28;20048;-76
2021/04/09 08:49:58;;;;;;;7.97;4.47;;;10.40;73.00;;;;;;4983363;28;20019;-76
2021/04/09 08:52:25;;;;;;;9.85;4.57;;;10.50;72.10;;;;;;4983894;28;20631;-76
2021/04/09 08:54:53;;;;;;;8.10;4.10;;;10.60;71.80;;;;;;4987688;28;20500;-77
2021/04/09 08:57:32;;;;;;;8.25;4.20;;;10.70;71.30;;;;;;4987257;28;20089;-77
2021/04/09 09:00:19;;;;;;;11.35;4.30;;;10.80;70.90;;;;;;4984952;28;20119;-76
2021/04/09 09:02:53;;;;;;;8.20;4.00;;;10.90;69.60;;;;;;4978789;28;20062;-77
2021/04/09 09:05:20;;;;;;;9.35;3.88;;;11.10;69.10;;;;;;5000322;28;20030;-75
2021/04/09 09:07:46;;;;;;;7.57;4.53;;;11.30;68.20;;;;;;4989314;28;20482;-79
2021/04/09 09:10:29;;;;;;;10.40;4.32;;;11.30;67.70;;;;;;4988695;28;20104;-77
2021/04/09 09:15:45;;;;;;;8.23;4.53;;;11.50;66.30;;;;;;4986070;28;20026;-77
2021/04/09 09:18:22;;;;;;;8.30;3.60;;;11.70;64.80;;;;;;4987002;28;20026;-76
2021/04/09 09:21:14;;;;;;;6.53;3.58;;;11.80;64.20;;;;;;4984702;28;20038;-78
2021/04/09 09:23:51;;;;;;;8.27;4.00;;;11.90;63.10;;;;;;4982824;28;20485;-77
2021/04/09 09:26:33;;;;;;;10.82;4.00;;;11.80;63.40;;;;;;4988771;28;20019;-78
2021/04/09 09:29:19;;;;;;;9.50;3.75;;;12.00;63.10;;;;;;4983013;28;20057;-76
2021/04/09 09:32:00;;;;;;;7.50;3.92;;;12.20;61.80;;;;;;4987791;28;20030;-78
2021/04/09 09:34:28;;;;;;;7.53;4.32;;;12.30;61.30;;;;;;5001021;28;20414;-79
2021/04/09 09:36:59;;;;;;;7.70;3.97;;;12.40;60.60;;;;;;4985844;28;20119;-77
2021/04/09 09:39:39;;;;;;;14.90;4.40;;;12.50;60.00;;;;;;4975529;28;20058;-78
2021/04/09 09:42:10;;;;;;;7.60;3.80;;;12.60;58.50;;;;;;4982595;28;20034;-76
2021/04/09 09:44:41;;;;;;;;;;;12.70;57.90;;;;;;4982911;28;20045;-77
2021/04/09 09:47:16;;;;;;;7.75;4.00;;;12.80;58.40;;;;;;4983553;28;19913;-76
2021/04/09 09:50:06;;;;;;;6.35;3.40;;;12.80;58.60;;;;;;4999986;28;20557;-77
2021/04/09 09:52:55;;;;;;;10.38;4.47;;;12.60;56.90;;;;;;4981829;28;20026;-76
2021/04/09 09:55:37;;;;;;;7.53;4.00;;;12.70;57.60;;;;;;4987042;28;20125;-77
2021/04/09 09:58:18;;;;;;;8.82;4.20;;;12.80;57.00;;;;;;4986990;28;20057;-77
2021/04/09 10:00:59;;;;;;;6.85;4.00;;;12.90;57.30;;;;;;4988225;28;20030;-77
2021/04/09 10:03:33;;;;;;;10.45;3.92;;;13.20;57.10;;;;;;4990399;28;20030;-77
2021/04/09 10:06:01;;;;;;;10.25;3.75;;;13.20;56.80;;;;;;4992718;28;20034;-78
2021/04/09 10:08:31;;;;;;;8.50;3.92;;;13.10;56.90;;;;;;4989447;28;20023;-76
2021/04/09 10:11:04;;;;;;;11.20;4.38;;;13.20;57.50;;;;;;4988916;28;20034;-76
2021/04/09 10:13:34;;;;;;;7.07;3.67;;;13.30;56.50;;;;;;4990838;28;20038;-77
2021/04/09 10:16:07;;;;;;;6.00;3.58;;;13.50;56.30;;;;;;4988890;28;20050;-78
2021/04/09 10:18:33;;;;;;;9.18;3.92;;;14.30;55.90;;;;;;4991603;28;20038;-78
2021/04/09 10:21:22;;;;;;;7.38;3.67;;;15.10;56.20;;;;;;4991062;28;20088;-78
2021/04/09 10:23:50;;;;;;;8.52;3.50;;;13.90;54.40;;;;;;4992014;28;20038;-78
2021/04/09 10:26:23;;;;;;;7.93;3.80;;;14.10;53.00;;;;;;4991199;28;20050;-77
2021/04/09 10:28:48;;;;;;;9.40;3.50;;;14.20;53.90;;;;;;4990284;28;20026;-77
2021/04/09 10:31:22;;;;;;;8.65;3.70;;;14.20;53.10;;;;;;4984954;28;20145;-78
2021/04/09 10:33:49;;;;;;;8.07;3.60;;;14.30;52.80;;;;;;4989715;28;20046;-79
2021/04/09 10:36:19;;;;;;;8.38;4.03;;;15.10;53.80;;;;;;4991383;28;20493;-78
2021/04/09 10:38:47;;;;;;;6.83;3.57;;;14.40;53.60;;;;;;4990762;28;20038;-77
2021/04/09 10:41:33;;;;;;;6.85;3.60;;;15.50;54.40;;;;;;4989987;28;20026;-79
2021/04/09 10:44:01;;;;;;;7.03;3.88;;;14.60;49.80;;;;;;4991442;28;20104;-78
2021/04/09 10:46:29;;;;;;;6.63;3.42;;;14.70;49.50;;;;;;4992564;28;20025;-76
2021/04/09 10:49:00;;;;;;;6.35;3.35;;;14.60;49.80;;;;;;4990643;28;20064;-76
2021/04/09 10:51:31;;;;;;;7.80;3.92;;;14.90;49.90;;;;;;4989352;28;20022;-77
2021/04/09 10:54:07;;;;;;;9.40;4.38;;;14.90;50.10;;;;;;4986861;28;20022;-78
2021/04/09 10:56:33;;;;;;;6.93;3.88;;;14.90;50.90;;;;;;4988852;28;20038;-76
2021/04/09 10:58:59;;;;;;;8.25;3.47;;;16.60;52.60;;;;;;4992581;28;20424;-76
2021/04/09 11:01:26;;;;;;;7.30;3.35;;;15.20;52.60;;;;;;4992450;28;20149;-78
2021/04/09 11:03:58;;;;;;;6.85;3.10;;;16.80;52.50;;;;;;4984639;28;20584;-78
2021/04/09 11:06:24;;;;;;;6.13;3.10;;;;;;;;;;4997842;28;20104;-79
2021/04/09 11:08:59;;;;;;;9.73;3.78;;;15.50;49.20;;;;;;4985917;28;20084;-80
2021/04/09 11:11:33;;;;;;;6.88;3.28;;;15.60;47.30;;;;;;5002919;28;20113;-80
2021/04/09 11:14:03;;;;;;;7.20;3.05;;;15.80;45.80;;;;;;4989798;28;20042;-78
2021/04/09 11:16:45;;;;;;;6.88;3.50;;;15.80;46.40;;;;;;4994664;28;20077;-76
2021/04/09 11:19:40;;;;;;;6.55;3.25;;;16.00;44.70;;;;;;4990487;28;20030;-77
2021/04/09 11:22:07;;;;;;;6.35;3.10;;;16.20;46.00;;;;;;4988549;28;20445;-79
2021/04/09 11:24:38;;;;;;;8.48;3.22;;;17.00;46.90;;;;;;4992816;28;20023;-79
2021/04/09 11:27:19;;;;;;;7.65;3.47;;;16.40;46.60;;;;;;5006484;28;20026;-79
2021/04/09 11:29:45;;;;;;;6.22;3.38;;;16.50;46.20;;;;;;4992119;28;20034;-79
2021/04/09 11:32:15;;;;;;;6.75;3.10;;;19.00;47.50;;;;;;4993108;28;21075;-77
2021/04/09 11:34:43;;;;;;;6.60;3.47;;;16.60;45.70;;;;;;5006667;28;20036;-80
2021/04/09 11:37:09;;;;;;;7.07;3.40;;;;;;;;;;4984622;28;20031;-77
2021/04/09 11:39:56;;;;;;;7.78;3.10;;;16.60;43.90;;;;;;4991935;28;20492;-76
2021/04/09 11:42:30;;;;;;;6.25;3.30;;;16.50;43.40;;;;;;4984520;28;20607;-78
2021/04/09 11:44:56;;;;;;;6.10;3.38;;;16.50;43.90;;;;;;4985720;28;20114;-76
2021/04/09 11:47:34;;;;;;;8.80;3.40;;;16.30;44.10;;;;;;4980313;28;20058;-78
2021/04/09 11:50:16;;;;;;;8.10;3.30;;;16.70;44.60;;;;;;4985678;28;20034;-77
2021/04/09 11:53:02;;;;;;;7.47;3.78;;;16.30;43.60;;;;;;4988055;28;20058;-79
2021/04/09 11:55:38;;;;;;;6.03;3.55;;;17.10;43.50;;;;;;4991241;28;20045;-75
2021/04/09 11:58:29;;;;;;;7.13;3.53;;;17.30;43.50;;;;;;4988529;28;20101;-79
2021/04/09 12:00:55;;;;;;;8.73;3.78;;;;;;;;;;4980659;28;20076;-78
2021/04/09 12:03:35;;;;;;;8.45;3.60;;;16.80;43.10;;;;;;4991150;28;20039;-78
2021/04/09 12:06:11;;;;;;;4.95;2.88;;;16.80;44.40;;;;;;4987487;28;20028;-77
2021/04/09 12:08:42;;;;;;;4.68;2.83;;;16.50;44.70;;;;;;5011613;28;20508;-76
2021/04/09 12:11:08;;;;;;;5.57;3.22;;;15.30;46.00;;;;;;4983612;28;20042;-78
2021/04/09 12:13:45;;;;;;;6.88;3.13;;;16.50;46.10;;;;;;4990164;28;20022;-77
2021/04/09 12:16:11;;;;;;;9.85;3.45;;;17.20;47.30;;;;;;4985340;28;20050;-77
2021/04/09 12:18:37;;;;;;;8.48;3.30;;;16.10;46.50;;;;;;4981866;28;20441;-78
2021/04/09 12:21:03;;;;;;;9.60;3.38;;;;;;;;;;4982763;28;20552;-77
2021/04/09 12:23:29;;;;;;;6.00;3.33;;;16.10;46.60;;;;;;4986039;28;20040;-76
2021/04/09 12:25:55;;;;;;;8.30;3.58;;;16.30;47.20;;;;;;4989631;28;20125;-80
2021/04/09 12:28:21;;;;;;;7.68;3.17;;;16.30;47.00;;;;;;4983946;28;20034;-79
2021/04/09 12:30:47;;;;;;;9.75;3.40;;;16.40;47.40;;;;;;4985376;28;20037;-79
2021/04/09 12:33:12;;;;;;;7.65;3.25;;;16.50;46.80;;;;;;4981217;28;20038;-79
2021/04/09 12:35:38;;;;;;;7.35;3.22;;;17.30;45.60;;;;;;4985889;28;20081;-79
2021/04/09 12:38:04;;;;;;;8.27;3.58;;;16.70;45.00;;;;;;4985027;28;20765;-81
2021/04/09 12:40:29;;;;;;;6.05;3.35;;;17.20;42.30;;;;;;4987928;28;20448;-80
2021/04/09 12:42:55;;;;;;;5.97;3.05;;;;;;;;;;4986343;28;20045;-76
2021/04/09 12:45:21;;;;;;;6.18;2.90;;;17.20;42.70;;;;;;4988864;28;20022;-75
2021/04/09 12:47:47;;;;;;;9.15;3.47;;;17.30;43.80;;;;;;4984424;28;20389;-80
2021/04/09 12:50:13;;;;;;;6.10;3.08;;;;;;;;;;4985034;28;20029;-81
2021/04/09 12:52:39;;;;;;;6.80;3.03;;;;;;;;;;4991279;28;20340;-81
2021/04/09 12:55:05;;;;;;;5.78;2.45;;;17.10;43.10;;;;;;5004083;28;20045;-81
2021/04/09 12:57:31;;;;;;;7.70;2.85;;;;;;;;;;4986270;28;20026;-77
2021/04/09 12:59:57;;;;;;;8.77;3.10;;;;;;;;;;4984963;28;20034;-80
2021/04/09 13:02:24;;;;;;;4.18;2.50;;;17.30;44.00;;;;;;4985693;28;20026;-78
2021/04/09 13:04:50;;;;;;;6.97;2.88;;;17.30;44.30;;;;;;4991280;28;20066;-80
2021/04/09 13:07:16;;;;;;;7.28;2.60;;;17.00;43.20;;;;;;4981632;28;20484;-76
2021/04/09 13:09:42;;;;;;;6.63;2.85;;;;;;;;;;4983040;28;20090;-79
2021/04/09 13:12:08;;;;;;;6.32;2.83;;;17.50;43.10;;;;;;4984517;28;20033;-79